NCAR-RAP Real-Time Weather Data

Output produced by METARs form (06 May 2021  16:44 UTC)
found at http://weather.rap.ucar.edu/surface/
 
KART 061556Z AUTO VRB04KT 10SM BKN050 11/00 A3004 RMK AO2 SLP174 T01060000
KART 061456Z AUTO 02009KT 10SM FEW044 11/M01 A3004 RMK AO2 SLP174 T01061006 51004
KART 061356Z AUTO 01009KT 10SM CLR 09/M01 A3004 RMK AO2 SLP173 T00941006
KART 061256Z AUTO 01006KT 10SM CLR 08/01 A3004 RMK AO2 SLP174 T00830006
KART 061156Z AUTO 32007KT 10SM CLR 07/02 A3003 RMK AO2 SLP171 70007 T00670022 10067 20006 51021
KART 061056Z AUTO 30005KT 10SM CLR 04/02 A3001 RMK AO2 SLP166 T00440022
KART 060956Z AUTO 25003KT 10SM CLR 01/M01 A2999 RMK AO2 SLP158 T00111006
KART 060856Z AUTO 30003KT 10SM CLR 03/01 A2997 RMK AO2 SLP149 T00330011 53012
KART 060756Z AUTO 31003KT 10SM CLR 04/02 A2995 RMK AO2 SLP145 T00390017
KART 060656Z AUTO 30005KT 10SM CLR 04/02 A2994 RMK AO2 SLP140 T00440022
KART 060556Z AUTO 31007KT 10SM FEW027 SCT080 07/03 A2993 RMK AO2 SLP137 60001 T00670033 10083 20061 51010
KART 060456Z AUTO 32006KT 10SM BKN080 08/04 A2993 RMK AO2 SLP135 T00780039 401220061
KART 060356Z AUTO 33007KT 10SM OVC085 08/05 A2991 RMK AO2 SLP130 T00830050
KART 060256Z AUTO 30007KT 10SM FEW032 BKN048 OVC085 08/06 A2990 RMK AO2 SLP127 60001 T00830061 53016
KART 060156Z AUTO 00000KT 10SM OVC041 08/07 A2989 RMK AO2 RAB12E52 SLP121 P0001 T00830072
KART 060056Z AUTO 23003KT 10SM FEW025 BKN055 OVC070 08/07 A2986 RMK AO2 RAE54 SLP112 P0000 T00780072
KART 060051Z AUTO 23004KT 9SM -RA FEW022 BKN048 OVC065 08/07 A2986 RMK AO2 P0000